sensor_id;sensor_type;location;lat;lon;timestamp;P1;durP1;ratioP1;P2;durP2;ratioP2
8171;SDS011;4127;47.908;10.850;2023-02-01T00:18:08;5.10;;;4.50;;
8171;SDS011;4127;47.908;10.850;2023-02-01T00:31:11;5.87;;;4.63;;
8171;SDS011;4127;47.908;10.850;2023-02-01T00:33:38;6.70;;;4.80;;
8171;SDS011;4127;47.908;10.850;2023-02-01T00:36:06;4.97;;;4.57;;
8171;SDS011;4127;47.908;10.850;2023-02-01T00:38:34;9.90;;;4.77;;
8171;SDS011;4127;47.908;10.850;2023-02-01T00:41:04;6.13;;;4.90;;
8171;SDS011;4127;47.908;10.850;2023-02-01T00:43:32;5.50;;;4.87;;
8171;SDS011;4127;47.908;10.850;2023-02-01T00:46:00;5.70;;;4.67;;
8171;SDS011;4127;47.908;10.850;2023-02-01T00:48:26;4.50;;;4.10;;
8171;SDS011;4127;47.908;10.850;2023-02-01T00:50:54;9.33;;;5.70;;
8171;SDS011;4127;47.908;10.850;2023-02-01T00:53:20;5.40;;;4.67;;
8171;SDS011;4127;47.908;10.850;2023-02-01T00:55:47;5.20;;;4.33;;
8171;SDS011;4127;47.908;10.850;2023-02-01T00:58:14;4.73;;;4.20;;
8171;SDS011;4127;47.908;10.850;2023-02-01T01:00:41;5.13;;;4.57;;
8171;SDS011;4127;47.908;10.850;2023-02-01T01:03:08;6.73;;;5.27;;
8171;SDS011;4127;47.908;10.850;2023-02-01T01:05:44;6.47;;;4.90;;
8171;SDS011;4127;47.908;10.850;2023-02-01T01:08:12;4.33;;;3.93;;
8171;SDS011;4127;47.908;10.850;2023-02-01T01:10:39;5.67;;;4.70;;
8171;SDS011;4127;47.908;10.850;2023-02-01T01:13:06;5.47;;;4.97;;
8171;SDS011;4127;47.908;10.850;2023-02-01T01:15:39;5.70;;;4.63;;
8171;SDS011;4127;47.908;10.850;2023-02-01T01:18:06;6.67;;;4.90;;
8171;SDS011;4127;47.908;10.850;2023-02-01T01:20:34;5.80;;;5.10;;
8171;SDS011;4127;47.908;10.850;2023-02-01T01:23:02;5.27;;;4.70;;
8171;SDS011;4127;47.908;10.850;2023-02-01T01:25:30;5.97;;;4.83;;
8171;SDS011;4127;47.908;10.850;2023-02-01T01:27:56;6.37;;;5.37;;
8171;SDS011;4127;47.908;10.850;2023-02-01T01:30:23;5.80;;;5.27;;
8171;SDS011;4127;47.908;10.850;2023-02-01T01:32:51;6.70;;;5.90;;
8171;SDS011;4127;47.908;10.850;2023-02-01T01:35:18;6.23;;;5.00;;
8171;SDS011;4127;47.908;10.850;2023-02-01T01:37:45;5.83;;;5.33;;
8171;SDS011;4127;47.908;10.850;2023-02-01T01:40:12;5.80;;;5.20;;
8171;SDS011;4127;47.908;10.850;2023-02-01T01:42:39;6.50;;;5.67;;
8171;SDS011;4127;47.908;10.850;2023-02-01T01:45:22;5.63;;;5.13;;
8171;SDS011;4127;47.908;10.850;2023-02-01T01:47:52;6.57;;;5.30;;
8171;SDS011;4127;47.908;10.850;2023-02-01T01:50:23;6.03;;;5.47;;
8171;SDS011;4127;47.908;10.850;2023-02-01T01:52:53;6.33;;;5.73;;
8171;SDS011;4127;47.908;10.850;2023-02-01T01:55:22;5.93;;;5.17;;
8171;SDS011;4127;47.908;10.850;2023-02-01T01:57:54;7.97;;;6.07;;
8171;SDS011;4127;47.908;10.850;2023-02-01T02:00:24;6.07;;;5.47;;
8171;SDS011;4127;47.908;10.850;2023-02-01T02:02:58;6.07;;;5.00;;
8171;SDS011;4127;47.908;10.850;2023-02-01T02:05:32;5.90;;;5.30;;
8171;SDS011;4127;47.908;10.850;2023-02-01T02:07:59;6.27;;;5.67;;
8171;SDS011;4127;47.908;10.850;2023-02-01T02:10:27;6.30;;;5.70;;
8171;SDS011;4127;47.908;10.850;2023-02-01T02:13:16;6.77;;;5.97;;
8171;SDS011;4127;47.908;10.850;2023-02-01T02:16:04;6.27;;;5.60;;
8171;SDS011;4127;47.908;10.850;2023-02-01T02:18:39;6.90;;;5.30;;
8171;SDS011;4127;47.908;10.850;2023-02-01T02:32:47;6.63;;;5.93;;
8171;SDS011;4127;47.908;10.850;2023-02-01T02:43:43;5.47;;;4.97;;
8171;SDS011;4127;47.908;10.850;2023-02-01T02:46:51;6.20;;;5.03;;
8171;SDS011;4127;47.908;10.850;2023-02-01T02:49:41;6.27;;;4.73;;
8171;SDS011;4127;47.908;10.850;2023-02-01T02:52:36;5.83;;;5.10;;
8171;SDS011;4127;47.908;10.850;2023-02-01T02:55:27;6.67;;;5.53;;
8171;SDS011;4127;47.908;10.850;2023-02-01T02:57:56;5.83;;;4.70;;
8171;SDS011;4127;47.908;10.850;2023-02-01T03:00:43;5.83;;;5.23;;
8171;SDS011;4127;47.908;10.850;2023-02-01T03:03:35;6.17;;;5.40;;
8171;SDS011;4127;47.908;10.850;2023-02-01T03:06:23;6.23;;;4.93;;
8171;SDS011;4127;47.908;10.850;2023-02-01T03:08:51;5.37;;;4.87;;
8171;SDS011;4127;47.908;10.850;2023-02-01T03:11:20;5.40;;;4.83;;
8171;SDS011;4127;47.908;10.850;2023-02-01T03:13:51;5.37;;;4.87;;
8171;SDS011;4127;47.908;10.850;2023-02-01T03:24:38;6.47;;;4.93;;
8171;SDS011;4127;47.908;10.850;2023-02-01T03:27:09;5.53;;;4.87;;
8171;SDS011;4127;47.908;10.850;2023-02-01T03:29:51;5.87;;;5.27;;
8171;SDS011;4127;47.908;10.850;2023-02-01T03:32:32;5.77;;;4.90;;
8171;SDS011;4127;47.908;10.850;2023-02-01T03:35:30;6.20;;;5.03;;
8171;SDS011;4127;47.908;10.850;2023-02-01T03:38:07;5.77;;;4.97;;
8171;SDS011;4127;47.908;10.850;2023-02-01T03:40:35;5.67;;;5.07;;
8171;SDS011;4127;47.908;10.850;2023-02-01T03:43:04;6.23;;;5.30;;
8171;SDS011;4127;47.908;10.850;2023-02-01T03:45:36;6.33;;;4.93;;
8171;SDS011;4127;47.908;10.850;2023-02-01T03:48:08;6.47;;;5.00;;
8171;SDS011;4127;47.908;10.850;2023-02-01T03:50:36;5.23;;;4.73;;
8171;SDS011;4127;47.908;10.850;2023-02-01T03:53:16;6.90;;;5.50;;
8171;SDS011;4127;47.908;10.850;2023-02-01T03:55:46;5.97;;;5.47;;
8171;SDS011;4127;47.908;10.850;2023-02-01T03:58:15;5.90;;;5.20;;
8171;SDS011;4127;47.908;10.850;2023-02-01T04:00:53;7.03;;;5.60;;
8171;SDS011;4127;47.908;10.850;2023-02-01T04:03:25;5.50;;;5.00;;
8171;SDS011;4127;47.908;10.850;2023-02-01T04:05:52;6.73;;;5.73;;
8171;SDS011;4127;47.908;10.850;2023-02-01T04:08:20;5.40;;;4.90;;
8171;SDS011;4127;47.908;10.850;2023-02-01T04:10:47;6.30;;;5.23;;
8171;SDS011;4127;47.908;10.850;2023-02-01T04:13:14;5.50;;;4.90;;
8171;SDS011;4127;47.908;10.850;2023-02-01T04:15:41;6.10;;;5.53;;
8171;SDS011;4127;47.908;10.850;2023-02-01T04:18:07;6.53;;;5.60;;
8171;SDS011;4127;47.908;10.850;2023-02-01T04:20:34;5.73;;;5.13;;
8171;SDS011;4127;47.908;10.850;2023-02-01T04:23:01;5.50;;;5.00;;
8171;SDS011;4127;47.908;10.850;2023-02-01T04:25:29;7.37;;;4.90;;
8171;SDS011;4127;47.908;10.850;2023-02-01T04:27:56;6.40;;;5.77;;
8171;SDS011;4127;47.908;10.850;2023-02-01T04:30:22;5.27;;;4.77;;
8171;SDS011;4127;47.908;10.850;2023-02-01T04:32:50;6.77;;;6.17;;
8171;SDS011;4127;47.908;10.850;2023-02-01T04:35:17;6.43;;;5.60;;
8171;SDS011;4127;47.908;10.850;2023-02-01T04:37:43;6.13;;;5.60;;
8171;SDS011;4127;47.908;10.850;2023-02-01T04:40:10;7.13;;;5.67;;
8171;SDS011;4127;47.908;10.850;2023-02-01T04:42:37;6.40;;;5.10;;
8171;SDS011;4127;47.908;10.850;2023-02-01T04:45:04;6.47;;;5.87;;
8171;SDS011;4127;47.908;10.850;2023-02-01T04:47:32;6.33;;;5.50;;
8171;SDS011;4127;47.908;10.850;2023-02-01T04:49:58;7.07;;;5.30;;
8171;SDS011;4127;47.908;10.850;2023-02-01T04:52:25;6.20;;;5.60;;
8171;SDS011;4127;47.908;10.850;2023-02-01T04:54:53;6.97;;;6.13;;
8171;SDS011;4127;47.908;10.850;2023-02-01T04:57:24;6.37;;;5.33;;
8171;SDS011;4127;47.908;10.850;2023-02-01T04:59:51;7.20;;;5.93;;
8171;SDS011;4127;47.908;10.850;2023-02-01T05:02:18;6.33;;;5.17;;
8171;SDS011;4127;47.908;10.850;2023-02-01T05:04:45;7.17;;;6.43;;
8171;SDS011;4127;47.908;10.850;2023-02-01T05:07:11;6.90;;;6.27;;
8171;SDS011;4127;47.908;10.850;2023-02-01T05:09:38;6.30;;;5.50;;
8171;SDS011;4127;47.908;10.850;2023-02-01T05:12:05;6.30;;;5.60;;
8171;SDS011;4127;47.908;10.850;2023-02-01T05:14:50;6.20;;;5.60;;
8171;SDS011;4127;47.908;10.850;2023-02-01T05:17:17;6.67;;;5.93;;
8171;SDS011;4127;47.908;10.850;2023-02-01T05:19:44;6.40;;;5.70;;
8171;SDS011;4127;47.908;10.850;2023-02-01T05:22:11;7.67;;;6.37;;
8171;SDS011;4127;47.908;10.850;2023-02-01T05:24:37;6.37;;;5.73;;
8171;SDS011;4127;47.908;10.850;2023-02-01T05:27:04;6.47;;;5.90;;
8171;SDS011;4127;47.908;10.850;2023-02-01T05:29:31;7.67;;;5.97;;
8171;SDS011;4127;47.908;10.850;2023-02-01T05:31:58;6.57;;;5.87;;
8171;SDS011;4127;47.908;10.850;2023-02-01T05:34:40;6.77;;;5.87;;
8171;SDS011;4127;47.908;10.850;2023-02-01T05:37:07;6.53;;;5.87;;
8171;SDS011;4127;47.908;10.850;2023-02-01T05:39:33;7.53;;;5.57;;
8171;SDS011;4127;47.908;10.850;2023-02-01T05:42:00;6.63;;;5.67;;
8171;SDS011;4127;47.908;10.850;2023-02-01T05:44:27;7.40;;;5.50;;
8171;SDS011;4127;47.908;10.850;2023-02-01T05:46:54;5.87;;;5.10;;
8171;SDS011;4127;47.908;10.850;2023-02-01T05:49:20;6.73;;;5.57;;
8171;SDS011;4127;47.908;10.850;2023-02-01T05:51:47;6.17;;;5.07;;
8171;SDS011;4127;47.908;10.850;2023-02-01T05:54:14;6.33;;;5.73;;
8171;SDS011;4127;47.908;10.850;2023-02-01T05:56:41;6.83;;;5.50;;
8171;SDS011;4127;47.908;10.850;2023-02-01T05:59:08;6.20;;;5.17;;
8171;SDS011;4127;47.908;10.850;2023-02-01T06:01:35;6.67;;;5.10;;
8171;SDS011;4127;47.908;10.850;2023-02-01T06:04:02;6.20;;;5.57;;
8171;SDS011;4127;47.908;10.850;2023-02-01T06:06:29;5.20;;;4.70;;
8171;SDS011;4127;47.908;10.850;2023-02-01T06:08:56;5.83;;;4.83;;
8171;SDS011;4127;47.908;10.850;2023-02-01T06:11:22;6.70;;;6.03;;
8171;SDS011;4127;47.908;10.850;2023-02-01T06:13:58;5.67;;;5.17;;
8171;SDS011;4127;47.908;10.850;2023-02-01T06:16:24;6.60;;;5.60;;
8171;SDS011;4127;47.908;10.850;2023-02-01T06:18:51;6.17;;;5.23;;
8171;SDS011;4127;47.908;10.850;2023-02-01T06:21:18;5.33;;;4.73;;
8171;SDS011;4127;47.908;10.850;2023-02-01T06:23:50;5.47;;;4.97;;
8171;SDS011;4127;47.908;10.850;2023-02-01T06:26:17;6.83;;;5.93;;
8171;SDS011;4127;47.908;10.850;2023-02-01T06:28:45;6.50;;;5.57;;
8171;SDS011;4127;47.908;10.850;2023-02-01T06:36:45;6.23;;;5.63;;
8171;SDS011;4127;47.908;10.850;2023-02-01T06:55:15;5.93;;;5.27;;
8171;SDS011;4127;47.908;10.850;2023-02-01T06:57:42;5.80;;;5.30;;
8171;SDS011;4127;47.908;10.850;2023-02-01T07:00:09;5.03;;;4.53;;
8171;SDS011;4127;47.908;10.850;2023-02-01T07:02:36;6.67;;;5.87;;
8171;SDS011;4127;47.908;10.850;2023-02-01T07:05:04;5.90;;;5.03;;
8171;SDS011;4127;47.908;10.850;2023-02-01T07:07:31;5.67;;;5.17;;
8171;SDS011;4127;47.908;10.850;2023-02-01T07:09:58;5.73;;;4.83;;
8171;SDS011;4127;47.908;10.850;2023-02-01T07:12:24;8.07;;;6.53;;
8171;SDS011;4127;47.908;10.850;2023-02-01T07:14:51;13.00;;;9.73;;
8171;SDS011;4127;47.908;10.850;2023-02-01T07:17:18;6.97;;;6.13;;
8171;SDS011;4127;47.908;10.850;2023-02-01T07:19:45;6.13;;;5.30;;
8171;SDS011;4127;47.908;10.850;2023-02-01T07:22:11;6.43;;;5.80;;
8171;SDS011;4127;47.908;10.850;2023-02-01T07:24:38;6.67;;;5.40;;
8171;SDS011;4127;47.908;10.850;2023-02-01T07:27:05;6.23;;;5.63;;
8171;SDS011;4127;47.908;10.850;2023-02-01T07:29:32;7.00;;;6.23;;
8171;SDS011;4127;47.908;10.850;2023-02-01T07:31:58;7.33;;;6.57;;
8171;SDS011;4127;47.908;10.850;2023-02-01T07:34:26;7.80;;;6.73;;
8171;SDS011;4127;47.908;10.850;2023-02-01T07:36:53;6.57;;;5.97;;
8171;SDS011;4127;47.908;10.850;2023-02-01T07:39:20;6.27;;;5.40;;
8171;SDS011;4127;47.908;10.850;2023-02-01T07:41:46;8.50;;;6.00;;
8171;SDS011;4127;47.908;10.850;2023-02-01T07:44:13;7.23;;;5.57;;
8171;SDS011;4127;47.908;10.850;2023-02-01T07:46:40;8.10;;;6.67;;
8171;SDS011;4127;47.908;10.850;2023-02-01T07:49:07;7.80;;;6.37;;
8171;SDS011;4127;47.908;10.850;2023-02-01T07:51:33;6.43;;;5.70;;
8171;SDS011;4127;47.908;10.850;2023-02-01T07:54:00;5.80;;;5.27;;
8171;SDS011;4127;47.908;10.850;2023-02-01T07:56:27;5.87;;;5.27;;
8171;SDS011;4127;47.908;10.850;2023-02-01T07:58:54;7.73;;;5.33;;
8171;SDS011;4127;47.908;10.850;2023-02-01T08:01:23;5.83;;;5.10;;
8171;SDS011;4127;47.908;10.850;2023-02-01T08:03:52;5.60;;;5.10;;
8171;SDS011;4127;47.908;10.850;2023-02-01T08:06:27;6.00;;;5.40;;
8171;SDS011;4127;47.908;10.850;2023-02-01T08:08:57;5.37;;;4.70;;
8171;SDS011;4127;47.908;10.850;2023-02-01T08:11:25;6.50;;;4.53;;
8171;SDS011;4127;47.908;10.850;2023-02-01T08:13:52;7.10;;;5.03;;
8171;SDS011;4127;47.908;10.850;2023-02-01T08:16:19;5.93;;;4.87;;
8171;SDS011;4127;47.908;10.850;2023-02-01T08:18:47;5.97;;;4.83;;
8171;SDS011;4127;47.908;10.850;2023-02-01T08:21:18;5.77;;;5.27;;
8171;SDS011;4127;47.908;10.850;2023-02-01T08:24:09;6.20;;;5.00;;
8171;SDS011;4127;47.908;10.850;2023-02-01T08:26:36;6.00;;;4.63;;
8171;SDS011;4127;47.908;10.850;2023-02-01T08:29:03;5.20;;;4.67;;
8171;SDS011;4127;47.908;10.850;2023-02-01T08:31:32;5.20;;;4.70;;
8171;SDS011;4127;47.908;10.850;2023-02-01T08:34:00;5.63;;;5.03;;
8171;SDS011;4127;47.908;10.850;2023-02-01T08:36:29;5.53;;;4.43;;
8171;SDS011;4127;47.908;10.850;2023-02-01T08:38:56;5.13;;;4.63;;
8171;SDS011;4127;47.908;10.850;2023-02-01T08:41:24;5.53;;;5.03;;
8171;SDS011;4127;47.908;10.850;2023-02-01T08:43:53;6.63;;;5.27;;
8171;SDS011;4127;47.908;10.850;2023-02-01T08:46:20;4.37;;;3.97;;
8171;SDS011;4127;47.908;10.850;2023-02-01T08:48:48;5.13;;;4.40;;
8171;SDS011;4127;47.908;10.850;2023-02-01T08:51:16;5.30;;;4.73;;
8171;SDS011;4127;47.908;10.850;2023-02-01T08:53:44;5.20;;;4.70;;
8171;SDS011;4127;47.908;10.850;2023-02-01T08:56:12;4.80;;;4.30;;
8171;SDS011;4127;47.908;10.850;2023-02-01T08:58:40;5.47;;;4.70;;
8171;SDS011;4127;47.908;10.850;2023-02-01T09:01:11;4.63;;;4.03;;
8171;SDS011;4127;47.908;10.850;2023-02-01T09:03:40;5.60;;;4.97;;
8171;SDS011;4127;47.908;10.850;2023-02-01T09:06:08;4.80;;;4.30;;
8171;SDS011;4127;47.908;10.850;2023-02-01T09:08:37;5.10;;;4.60;;
8171;SDS011;4127;47.908;10.850;2023-02-01T09:11:07;5.23;;;4.50;;
8171;SDS011;4127;47.908;10.850;2023-02-01T09:13:37;4.93;;;4.30;;
8171;SDS011;4127;47.908;10.850;2023-02-01T09:16:04;4.60;;;4.10;;
8171;SDS011;4127;47.908;10.850;2023-02-01T09:18:31;4.47;;;4.07;;
8171;SDS011;4127;47.908;10.850;2023-02-01T09:20:58;5.33;;;4.83;;
8171;SDS011;4127;47.908;10.850;2023-02-01T09:23:25;4.80;;;4.37;;
8171;SDS011;4127;47.908;10.850;2023-02-01T09:25:51;4.67;;;4.17;;
8171;SDS011;4127;47.908;10.850;2023-02-01T09:28:18;4.60;;;4.20;;
8171;SDS011;4127;47.908;10.850;2023-02-01T09:30:46;4.23;;;3.87;;
8171;SDS011;4127;47.908;10.850;2023-02-01T09:33:13;4.63;;;4.20;;
8171;SDS011;4127;47.908;10.850;2023-02-01T09:35:39;4.97;;;4.47;;
8171;SDS011;4127;47.908;10.850;2023-02-01T09:38:06;4.60;;;4.20;;
8171;SDS011;4127;47.908;10.850;2023-02-01T09:40:33;6.13;;;4.37;;
8171;SDS011;4127;47.908;10.850;2023-02-01T09:43:06;4.50;;;3.97;;
8171;SDS011;4127;47.908;10.850;2023-02-01T09:46:33;4.47;;;4.07;;
8171;SDS011;4127;47.908;10.850;2023-02-01T09:48:55;4.83;;;4.23;;
8171;SDS011;4127;47.908;10.850;2023-02-01T09:51:32;4.37;;;3.97;;
8171;SDS011;4127;47.908;10.850;2023-02-01T09:54:06;5.67;;;5.03;;
8171;SDS011;4127;47.908;10.850;2023-02-01T09:56:41;5.10;;;4.60;;
8171;SDS011;4127;47.908;10.850;2023-02-01T10:01:58;5.13;;;4.23;;
8171;SDS011;4127;47.908;10.850;2023-02-01T10:04:27;4.57;;;4.17;;
8171;SDS011;4127;47.908;10.850;2023-02-01T10:17:57;4.20;;;3.80;;
8171;SDS011;4127;47.908;10.850;2023-02-01T10:20:39;4.97;;;4.40;;
8171;SDS011;4127;47.908;10.850;2023-02-01T10:28:46;4.60;;;4.20;;
8171;SDS011;4127;47.908;10.850;2023-02-01T10:31:19;4.00;;;3.70;;
8171;SDS011;4127;47.908;10.850;2023-02-01T10:33:50;4.60;;;4.20;;
8171;SDS011;4127;47.908;10.850;2023-02-01T10:36:23;4.80;;;4.00;;
8171;SDS011;4127;47.908;10.850;2023-02-01T10:39:02;4.83;;;4.33;;
8171;SDS011;4127;47.908;10.850;2023-02-01T10:41:34;3.97;;;3.57;;
8171;SDS011;4127;47.908;10.850;2023-02-01T10:44:04;4.57;;;3.97;;
8171;SDS011;4127;47.908;10.850;2023-02-01T10:46:37;3.80;;;3.50;;
8171;SDS011;4127;47.908;10.850;2023-02-01T10:49:04;4.10;;;3.63;;
8171;SDS011;4127;47.908;10.850;2023-02-01T10:51:50;4.13;;;3.73;;
8171;SDS011;4127;47.908;10.850;2023-02-01T10:54:23;3.73;;;3.37;;
8171;SDS011;4127;47.908;10.850;2023-02-01T10:57:19;4.10;;;3.67;;
8171;SDS011;4127;47.908;10.850;2023-02-01T10:59:52;3.70;;;3.40;;
8171;SDS011;4127;47.908;10.850;2023-02-01T11:02:40;4.40;;;3.90;;
8171;SDS011;4127;47.908;10.850;2023-02-01T11:05:07;3.80;;;3.50;;
8171;SDS011;4127;47.908;10.850;2023-02-01T11:07:38;4.07;;;3.40;;
8171;SDS011;4127;47.908;10.850;2023-02-01T11:13:15;4.00;;;3.30;;
8171;SDS011;4127;47.908;10.850;2023-02-01T11:15:44;4.43;;;3.93;;
8171;SDS011;4127;47.908;10.850;2023-02-01T11:18:24;4.30;;;3.90;;
8171;SDS011;4127;47.908;10.850;2023-02-01T11:20:53;3.83;;;3.43;;
8171;SDS011;4127;47.908;10.850;2023-02-01T11:23:22;6.60;;;4.07;;
8171;SDS011;4127;47.908;10.850;2023-02-01T11:25:51;5.23;;;3.53;;
8171;SDS011;4127;47.908;10.850;2023-02-01T11:28:19;4.03;;;3.63;;
8171;SDS011;4127;47.908;10.850;2023-02-01T11:30:51;4.43;;;3.60;;
8171;SDS011;4127;47.908;10.850;2023-02-01T11:33:24;3.50;;;3.20;;
8171;SDS011;4127;47.908;10.850;2023-02-01T11:35:57;4.23;;;3.50;;
8171;SDS011;4127;47.908;10.850;2023-02-01T11:38:28;4.80;;;3.77;;
8171;SDS011;4127;47.908;10.850;2023-02-01T11:41:11;4.27;;;3.87;;
8171;SDS011;4127;47.908;10.850;2023-02-01T11:43:54;5.93;;;4.10;;
8171;SDS011;4127;47.908;10.850;2023-02-01T11:46:23;3.77;;;3.47;;
8171;SDS011;4127;47.908;10.850;2023-02-01T11:48:54;5.50;;;3.53;;
8171;SDS011;4127;47.908;10.850;2023-02-01T11:51:29;5.13;;;3.90;;
8171;SDS011;4127;47.908;10.850;2023-02-01T11:57:02;5.67;;;4.60;;
8171;SDS011;4127;47.908;10.850;2023-02-01T12:05:11;6.57;;;4.93;;
8171;SDS011;4127;47.908;10.850;2023-02-01T12:08:26;4.83;;;3.50;;
8171;SDS011;4127;47.908;10.850;2023-02-01T12:27:48;4.43;;;3.60;;
8171;SDS011;4127;47.908;10.850;2023-02-01T12:33:35;3.53;;;3.23;;
8171;SDS011;4127;47.908;10.850;2023-02-01T12:44:43;3.77;;;3.47;;
8171;SDS011;4127;47.908;10.850;2023-02-01T12:50:02;3.60;;;3.03;;
8171;SDS011;4127;47.908;10.850;2023-02-01T12:52:45;3.57;;;3.27;;
8171;SDS011;4127;47.908;10.850;2023-02-01T12:55:25;5.23;;;3.30;;
8171;SDS011;4127;47.908;10.850;2023-02-01T13:00:49;3.47;;;3.17;;
8171;SDS011;4127;47.908;10.850;2023-02-01T13:06:31;4.80;;;3.40;;
8171;SDS011;4127;47.908;10.850;2023-02-01T13:11:34;4.03;;;3.57;;
8171;SDS011;4127;47.908;10.850;2023-02-01T13:14:11;4.83;;;3.77;;
8171;SDS011;4127;47.908;10.850;2023-02-01T13:17:19;3.50;;;3.20;;
8171;SDS011;4127;47.908;10.850;2023-02-01T13:19:59;5.20;;;3.43;;
8171;SDS011;4127;47.908;10.850;2023-02-01T13:22:51;3.87;;;3.47;;
8171;SDS011;4127;47.908;10.850;2023-02-01T13:25:28;5.60;;;4.10;;
8171;SDS011;4127;47.908;10.850;2023-02-01T13:28:31;4.57;;;3.57;;
8171;SDS011;4127;47.908;10.850;2023-02-01T13:42:30;5.13;;;4.07;;
8171;SDS011;4127;47.908;10.850;2023-02-01T13:45:02;6.67;;;4.97;;
8171;SDS011;4127;47.908;10.850;2023-02-01T13:47:32;4.60;;;4.20;;
8171;SDS011;4127;47.908;10.850;2023-02-01T13:50:01;4.93;;;3.60;;
8171;SDS011;4127;47.908;10.850;2023-02-01T13:52:39;4.70;;;3.73;;
8171;SDS011;4127;47.908;10.850;2023-02-01T13:57:49;5.50;;;4.10;;
8171;SDS011;4127;47.908;10.850;2023-02-01T14:00:34;4.67;;;3.50;;
8171;SDS011;4127;47.908;10.850;2023-02-01T14:09:12;5.10;;;4.00;;
8171;SDS011;4127;47.908;10.850;2023-02-01T14:16:40;5.40;;;4.43;;
8171;SDS011;4127;47.908;10.850;2023-02-01T14:19:31;6.80;;;5.37;;
8171;SDS011;4127;47.908;10.850;2023-02-01T14:22:00;4.97;;;3.93;;
8171;SDS011;4127;47.908;10.850;2023-02-01T14:24:50;6.50;;;3.90;;
8171;SDS011;4127;47.908;10.850;2023-02-01T14:27:21;7.13;;;4.77;;
8171;SDS011;4127;47.908;10.850;2023-02-01T14:29:57;5.60;;;4.60;;
8171;SDS011;4127;47.908;10.850;2023-02-01T14:32:30;5.87;;;4.10;;
8171;SDS011;4127;47.908;10.850;2023-02-01T14:35:00;6.33;;;4.40;;
8171;SDS011;4127;47.908;10.850;2023-02-01T14:37:32;4.43;;;3.77;;
8171;SDS011;4127;47.908;10.850;2023-02-01T14:53:12;4.40;;;4.00;;
8171;SDS011;4127;47.908;10.850;2023-02-01T14:59:07;5.00;;;4.23;;
8171;SDS011;4127;47.908;10.850;2023-02-01T15:01:39;5.63;;;3.80;;
8171;SDS011;4127;47.908;10.850;2023-02-01T15:04:17;5.80;;;3.90;;
8171;SDS011;4127;47.908;10.850;2023-02-01T15:06:49;5.20;;;3.37;;
8171;SDS011;4127;47.908;10.850;2023-02-01T15:14:40;6.57;;;4.77;;
8171;SDS011;4127;47.908;10.850;2023-02-01T15:17:18;5.30;;;3.90;;
8171;SDS011;4127;47.908;10.850;2023-02-01T15:19:53;6.37;;;3.90;;
8171;SDS011;4127;47.908;10.850;2023-02-01T15:22:21;6.03;;;3.73;;
8171;SDS011;4127;47.908;10.850;2023-02-01T15:24:51;5.80;;;4.27;;
8171;SDS011;4127;47.908;10.850;2023-02-01T15:27:20;4.73;;;3.20;;
8171;SDS011;4127;47.908;10.850;2023-02-01T15:29:47;6.17;;;3.63;;
8171;SDS011;4127;47.908;10.850;2023-02-01T15:32:33;6.77;;;4.23;;
8171;SDS011;4127;47.908;10.850;2023-02-01T15:35:01;6.63;;;3.50;;
8171;SDS011;4127;47.908;10.850;2023-02-01T15:37:29;6.70;;;4.23;;
8171;SDS011;4127;47.908;10.850;2023-02-01T15:42:37;6.83;;;3.93;;
8171;SDS011;4127;47.908;10.850;2023-02-01T15:45:18;6.27;;;3.97;;
8171;SDS011;4127;47.908;10.850;2023-02-01T15:47:48;6.03;;;3.30;;
8171;SDS011;4127;47.908;10.850;2023-02-01T15:50:17;6.50;;;3.90;;
8171;SDS011;4127;47.908;10.850;2023-02-01T15:52:48;4.80;;;2.87;;
8171;SDS011;4127;47.908;10.850;2023-02-01T15:55:29;8.03;;;4.07;;
8171;SDS011;4127;47.908;10.850;2023-02-01T15:58:16;5.00;;;3.67;;
8171;SDS011;4127;47.908;10.850;2023-02-01T16:00:54;4.93;;;2.93;;
8171;SDS011;4127;47.908;10.850;2023-02-01T16:03:28;5.10;;;3.27;;
8171;SDS011;4127;47.908;10.850;2023-02-01T16:06:00;4.63;;;3.73;;
8171;SDS011;4127;47.908;10.850;2023-02-01T16:08:29;7.47;;;3.43;;
8171;SDS011;4127;47.908;10.850;2023-02-01T16:11:13;5.50;;;3.43;;
8171;SDS011;4127;47.908;10.850;2023-02-01T16:13:41;7.47;;;3.43;;
8171;SDS011;4127;47.908;10.850;2023-02-01T16:16:08;6.17;;;3.50;;
8171;SDS011;4127;47.908;10.850;2023-02-01T16:18:40;4.07;;;3.50;;
8171;SDS011;4127;47.908;10.850;2023-02-01T16:21:08;5.67;;;3.50;;
8171;SDS011;4127;47.908;10.850;2023-02-01T16:23:35;5.47;;;3.53;;
8171;SDS011;4127;47.908;10.850;2023-02-01T16:26:05;6.80;;;4.20;;
8171;SDS011;4127;47.908;10.850;2023-02-01T16:28:32;7.20;;;3.43;;
8171;SDS011;4127;47.908;10.850;2023-02-01T16:31:00;5.07;;;3.07;;
8171;SDS011;4127;47.908;10.850;2023-02-01T16:33:28;5.37;;;2.90;;
8171;SDS011;4127;47.908;10.850;2023-02-01T16:35:55;8.17;;;3.53;;
8171;SDS011;4127;47.908;10.850;2023-02-01T16:38:35;5.20;;;2.73;;
8171;SDS011;4127;47.908;10.850;2023-02-01T16:41:03;10.00;;;4.73;;
8171;SDS011;4127;47.908;10.850;2023-02-01T16:43:31;8.23;;;4.20;;
8171;SDS011;4127;47.908;10.850;2023-02-01T16:45:59;7.83;;;3.97;;
8171;SDS011;4127;47.908;10.850;2023-02-01T16:48:29;11.50;;;5.80;;
8171;SDS011;4127;47.908;10.850;2023-02-01T16:51:00;20.93;;;4.60;;
8171;SDS011;4127;47.908;10.850;2023-02-01T16:53:35;10.87;;;6.80;;
8171;SDS011;4127;47.908;10.850;2023-02-01T16:56:20;7.60;;;4.93;;
8171;SDS011;4127;47.908;10.850;2023-02-01T16:58:48;8.33;;;4.17;;
8171;SDS011;4127;47.908;10.850;2023-02-01T17:01:16;6.97;;;3.77;;
8171;SDS011;4127;47.908;10.850;2023-02-01T17:03:45;6.17;;;3.40;;
8171;SDS011;4127;47.908;10.850;2023-02-01T17:06:14;7.73;;;3.73;;
8171;SDS011;4127;47.908;10.850;2023-02-01T17:08:49;5.80;;;3.90;;
8171;SDS011;4127;47.908;10.850;2023-02-01T17:11:18;6.07;;;2.97;;
8171;SDS011;4127;47.908;10.850;2023-02-01T17:13:44;7.97;;;3.43;;
8171;SDS011;4127;47.908;10.850;2023-02-01T17:18:50;9.33;;;3.70;;
8171;SDS011;4127;47.908;10.850;2023-02-01T17:21:26;8.57;;;3.90;;
8171;SDS011;4127;47.908;10.850;2023-02-01T17:23:55;11.13;;;5.23;;
8171;SDS011;4127;47.908;10.850;2023-02-01T17:26:25;7.63;;;4.80;;
8171;SDS011;4127;47.908;10.850;2023-02-01T17:28:51;6.67;;;4.60;;
8171;SDS011;4127;47.908;10.850;2023-02-01T17:31:18;7.37;;;4.17;;
8171;SDS011;4127;47.908;10.850;2023-02-01T17:33:45;8.60;;;4.10;;
8171;SDS011;4127;47.908;10.850;2023-02-01T17:36:13;7.37;;;3.90;;
8171;SDS011;4127;47.908;10.850;2023-02-01T17:38:42;8.27;;;3.97;;
8171;SDS011;4127;47.908;10.850;2023-02-01T17:41:19;10.57;;;3.57;;
8171;SDS011;4127;47.908;10.850;2023-02-01T17:43:46;10.33;;;3.87;;
8171;SDS011;4127;47.908;10.850;2023-02-01T17:46:15;7.77;;;4.20;;
8171;SDS011;4127;47.908;10.850;2023-02-01T17:48:52;5.33;;;3.10;;
8171;SDS011;4127;47.908;10.850;2023-02-01T17:51:21;4.73;;;3.80;;
8171;SDS011;4127;47.908;10.850;2023-02-01T17:53:50;7.77;;;3.20;;
8171;SDS011;4127;47.908;10.850;2023-02-01T17:56:18;5.80;;;3.13;;
8171;SDS011;4127;47.908;10.850;2023-02-01T17:58:46;5.83;;;3.10;;
8171;SDS011;4127;47.908;10.850;2023-02-01T18:01:15;9.63;;;3.50;;
8171;SDS011;4127;47.908;10.850;2023-02-01T18:03:50;6.20;;;3.57;;
8171;SDS011;4127;47.908;10.850;2023-02-01T18:06:18;5.50;;;3.27;;
8171;SDS011;4127;47.908;10.850;2023-02-01T18:08:48;6.30;;;2.97;;
8171;SDS011;4127;47.908;10.850;2023-02-01T18:11:16;7.10;;;3.00;;
8171;SDS011;4127;47.908;10.850;2023-02-01T18:13:44;6.47;;;3.27;;
8171;SDS011;4127;47.908;10.850;2023-02-01T18:16:15;6.57;;;2.90;;
8171;SDS011;4127;47.908;10.850;2023-02-01T18:18:45;6.40;;;3.40;;
8171;SDS011;4127;47.908;10.850;2023-02-01T18:21:13;8.50;;;3.70;;
8171;SDS011;4127;47.908;10.850;2023-02-01T18:23:43;6.87;;;3.30;;
8171;SDS011;4127;47.908;10.850;2023-02-01T18:26:12;5.93;;;3.10;;
8171;SDS011;4127;47.908;10.850;2023-02-01T18:28:40;10.30;;;3.43;;
8171;SDS011;4127;47.908;10.850;2023-02-01T18:31:29;5.27;;;3.50;;
8171;SDS011;4127;47.908;10.850;2023-02-01T18:33:58;8.23;;;3.13;;
8171;SDS011;4127;47.908;10.850;2023-02-01T18:36:26;5.60;;;2.80;;
8171;SDS011;4127;47.908;10.850;2023-02-01T18:38:55;6.13;;;3.20;;
8171;SDS011;4127;47.908;10.850;2023-02-01T18:41:23;4.93;;;3.03;;
8171;SDS011;4127;47.908;10.850;2023-02-01T18:43:50;6.77;;;3.30;;
8171;SDS011;4127;47.908;10.850;2023-02-01T18:46:18;7.63;;;3.40;;